Time;durP1;ratioP1;P1;durP2;ratioP2;P2;SDS_P1;SDS_P2;PMS_P1;PMS_P2;Temp;Humidity;BMP_temperature;BMP_pressure;BME280_temperature;BME280_humidity;BME280_pressure;Samples;Min_cycle;Max_cycle;Signal;HPM_P1;HPM_P2
2023/07/29 00:01:54;;;;;;;28.77;16.83;;;;;;;;;;6312682;22;20026;-89
2023/07/29 00:04:24;;;;;;;20.48;14.10;;;;;;;;;;6312601;22;20113;-88
2023/07/29 00:06:50;;;;;;;23.35;14.23;;;;;;;;;;6310557;22;20023;-88
2023/07/29 00:09:17;;;;;;;18.23;12.30;;;;;;;;;;6309962;22;20075;-88
2023/07/29 00:11:44;;;;;;;20.50;12.50;;;;;;;;;;6311191;22;20037;-89
2023/07/29 00:14:11;;;;;;;17.63;12.07;;;;;;;;;;6311645;22;20041;-89
2023/07/29 00:16:48;;;;;;;21.58;13.77;;;;;;;;;;6310768;22;20023;-89
2023/07/29 00:19:15;;;;;;;23.45;14.75;;;;;;;;;;6317911;22;20415;-86
2023/07/29 00:21:42;;;;;;;26.73;15.65;;;;;;;;;;6314219;22;20030;-89
2023/07/29 00:24:15;;;;;;;21.35;14.70;;;;;;;;;;6313598;22;20255;-89
2023/07/29 00:26:44;;;;;;;29.80;16.65;;;;;;;;;;6316001;22;20019;-87
2023/07/29 00:29:11;;;;;;;27.33;16.10;;;;;;;;;;6321354;22;20081;-87
2023/07/29 00:31:38;;;;;;;25.60;16.08;;;;;;;;;;6319038;22;20064;-88
2023/07/29 00:34:05;;;;;;;24.65;15.65;;;;;;;;;;6324115;22;20059;-87
2023/07/29 00:36:39;;;;;;;19.98;13.15;;;;;;;;;;6334913;22;20011;-87
2023/07/29 00:39:10;;;;;;;21.90;14.00;;;;;;;;;;6334822;22;20010;-87
2023/07/29 00:41:56;;;;;;;19.17;11.38;;;;;;;;;;6335348;22;20076;-88
2023/07/29 00:44:26;;;;;;;27.38;14.20;;;;;;;;;;6335037;22;20033;-87
2023/07/29 00:47:07;;;;;;;22.42;14.38;;;;;;;;;;6334612;22;20019;-88
2023/07/29 00:49:39;;;;;;;30.13;16.95;;;;;;;;;;6334862;22;20019;-89
2023/07/29 00:52:12;;;;;;;37.55;18.08;;;;;;;;;;6318209;22;20098;-89
2023/07/29 00:54:39;;;;;;;23.15;16.67;;;;;;;;;;6313029;22;20041;-89
2023/07/29 00:57:10;;;;;;;25.88;15.50;;;;;;;;;;6312167;22;20345;-88
2023/07/29 00:59:38;;;;;;;24.52;15.52;;;;;;;;;;6310609;22;20105;-89
2023/07/29 01:02:08;;;;;;;25.52;16.27;;;;;;;;;;6309935;22;20115;-89
2023/07/29 01:04:34;;;;;;;28.17;16.15;;;;;;;;;;6308395;22;20019;-88
2023/07/29 01:07:16;;;;;;;26.45;15.52;;;;;;;;;;6310814;22;20607;-89
2023/07/29 01:10:04;;;;;;;28.92;13.25;;;;;;;;;;6313947;22;20027;-87
2023/07/29 01:12:31;;;;;;;25.67;15.60;;;;;;;;;;6316562;22;20065;-87
2023/07/29 01:15:09;;;;;;;26.65;16.25;;;;;;;;;;6313368;22;20057;-88
2023/07/29 01:17:40;;;;;;;31.50;17.25;;;;;;;;;;6312191;22;20023;-88
2023/07/29 01:20:08;;;;;;;28.20;16.45;;;;;;;;;;6313129;22;20447;-88
2023/07/29 01:22:36;;;;;;;30.42;17.30;;;;;;;;;;6310856;22;20023;-88
2023/07/29 01:25:06;;;;;;;33.08;17.65;;;;;;;;;;6312532;22;20018;-88
2023/07/29 01:27:33;;;;;;;31.73;17.38;;;;;;;;;;6313676;22;20015;-88
2023/07/29 01:30:01;;;;;;;28.45;16.70;;;;;;;;;;6310981;22;20041;-88
2023/07/29 01:32:31;;;;;;;33.30;18.25;;;;;;;;;;6313962;22;20019;-88
2023/07/29 01:35:14;;;;;;;31.70;18.33;;;;;;;;;;6312196;22;20027;-88
2023/07/29 01:37:44;;;;;;;30.50;18.38;;;;;;;;;;6315915;22;20031;-88
2023/07/29 01:40:12;;;;;;;34.65;19.08;;;;;;;;;;6311475;22;20023;-88
2023/07/29 01:42:43;;;;;;;34.85;19.25;;;;;;;;;;6311021;22;20023;-88
2023/07/29 01:45:09;;;;;;;33.03;19.13;;;;;;;;;;6311241;22;20027;-89
2023/07/29 01:47:38;;;;;;;36.85;19.90;;;;;;;;;;6310889;22;20106;-88
2023/07/29 01:50:05;;;;;;;33.83;18.42;;;;;;;;;;6316494;22;20233;-89
2023/07/29 01:52:32;;;;;;;35.75;18.52;;;;;;;;;;6314953;22;20354;-89
2023/07/29 01:55:02;;;;;;;32.65;17.65;;;;;;;;;;6312640;22;20130;-89
2023/07/29 01:57:29;;;;;;;31.30;18.25;;;;;;;;;;6310453;22;20023;-88
2023/07/29 01:59:56;;;;;;;27.55;17.85;;;;;;;;;;6312618;22;20071;-88
2023/07/29 02:02:25;;;;;;;33.85;19.15;;;;;;;;;;6311562;22;20018;-89
2023/07/29 02:04:55;;;;;;;35.33;19.42;;;;;;;;;;6311775;22;20023;-89
2023/07/29 02:07:22;;;;;;;38.97;20.08;;;;;;;;;;6312847;22;20090;-89
2023/07/29 02:09:53;;;;;;;33.78;18.85;;;;;;;;;;6312252;22;20023;-88
2023/07/29 02:12:20;;;;;;;32.80;19.65;;;;;;;;;;6312396;22;20197;-88
2023/07/29 02:14:47;;;;;;;35.25;19.77;;;;;;;;;;6317311;22;20024;-89
2023/07/29 02:17:14;;;;;;;34.65;19.52;;;;;;;;;;6313053;22;20031;-88
2023/07/29 02:19:41;;;;;;;34.97;20.73;;;;;;;;;;6310731;22;20030;-88
2023/07/29 02:22:09;;;;;;;33.80;18.92;;;;;;;;;;6310699;22;20047;-88
2023/07/29 02:24:40;;;;;;;36.13;20.85;;;;;;;;;;6312959;22;20031;-88
2023/07/29 02:27:08;;;;;;;38.05;19.58;;;;;;;;;;6314449;22;20034;-88
2023/07/29 02:29:35;;;;;;;37.03;20.60;;;;;;;;;;6313204;22;20034;-88
2023/07/29 02:32:04;;;;;;;33.35;19.63;;;;;;;;;;6314599;22;20118;-88
2023/07/29 02:41:16;;;;;;;31.75;18.85;;;;;;;;;;6312778;22;20040;-88
2023/07/29 02:43:43;;;;;;;33.55;19.52;;;;;;;;;;6314302;22;20424;-89
2023/07/29 02:46:10;;;;;;;40.33;21.15;;;;;;;;;;6314093;22;20063;-88
2023/07/29 02:48:37;;;;;;;36.17;20.67;;;;;;;;;;6313241;22;20093;-88
2023/07/29 02:51:04;;;;;;;32.00;19.35;;;;;;;;;;6313667;22;20344;-88
2023/07/29 02:53:31;;;;;;;32.28;19.23;;;;;;;;;;6310526;22;20318;-88
2023/07/29 02:55:57;;;;;;;32.25;19.48;;;;;;;;;;6324685;22;20019;-88
2023/07/29 02:58:26;;;;;;;52.75;22.08;;;;;;;;;;6317401;22;20057;-88
2023/07/29 03:00:52;;;;;;;36.00;20.20;;;;;;;;;;6311686;22;20405;-88
2023/07/29 03:03:19;;;;;;;35.13;20.17;;;;;;;;;;6313366;22;20031;-88
2023/07/29 03:05:47;;;;;;;37.75;20.63;;;;;;;;;;6312462;22;20034;-88
2023/07/29 03:08:14;;;;;;;37.05;21.83;;;;;;;;;;6315425;22;20049;-88
2023/07/29 03:10:41;;;;;;;31.65;19.63;;;;;;;;;;6323818;22;20021;-88
2023/07/29 03:13:08;;;;;;;33.42;19.45;;;;;;;;;;6313493;22;20023;-88
2023/07/29 03:15:35;;;;;;;35.45;21.20;;;;;;;;;;6312534;22;20054;-88
2023/07/29 03:18:05;;;;;;;35.15;21.50;;;;;;;;;;6312461;22;20015;-88
2023/07/29 03:20:32;;;;;;;39.22;21.67;;;;;;;;;;6320000;22;20011;-88
2023/07/29 03:22:59;;;;;;;35.88;19.15;;;;;;;;;;6322861;22;20023;-88
2023/07/29 03:25:26;;;;;;;43.08;22.33;;;;;;;;;;6325141;22;20079;-87
2023/07/29 03:27:53;;;;;;;37.25;20.52;;;;;;;;;;6326648;22;20015;-88
2023/07/29 03:30:21;;;;;;;39.85;21.55;;;;;;;;;;6328873;22;20019;-88
2023/07/29 03:32:51;;;;;;;40.10;21.10;;;;;;;;;;6329551;22;20038;-89
2023/07/29 03:35:19;;;;;;;36.40;22.15;;;;;;;;;;6330169;22;20037;-88
2023/07/29 03:37:45;;;;;;;45.10;23.30;;;;;;;;;;6328304;22;20014;-88
2023/07/29 03:40:12;;;;;;;44.38;23.67;;;;;;;;;;6319160;22;20034;-88
2023/07/29 03:42:39;;;;;;;45.38;23.90;;;;;;;;;;6316714;22;20030;-88
2023/07/29 03:45:09;;;;;;;42.83;22.50;;;;;;;;;;6315061;22;20029;-88
2023/07/29 03:47:36;;;;;;;42.72;24.15;;;;;;;;;;6315133;22;20103;-87
2023/07/29 03:50:04;;;;;;;39.15;23.02;;;;;;;;;;6314368;22;20078;-89
2023/07/29 03:52:31;;;;;;;41.60;22.17;;;;;;;;;;6314516;22;20094;-89
2023/07/29 03:54:57;;;;;;;39.13;22.20;;;;;;;;;;6316177;22;20023;-89
2023/07/29 03:57:31;;;;;;;36.22;20.60;;;;;;;;;;6316234;22;20073;-89
2023/07/29 03:59:57;;;;;;;44.60;21.10;;;;;;;;;;6312452;22;20023;-90
2023/07/29 04:02:24;;;;;;;42.28;22.00;;;;;;;;;;6316089;22;20404;-89
2023/07/29 04:04:51;;;;;;;48.55;23.67;;;;;;;;;;6313382;22;20037;-89
2023/07/29 04:07:18;;;;;;;47.28;24.45;;;;;;;;;;6318455;22;20008;-89
2023/07/29 04:09:50;;;;;;;48.88;23.80;;;;;;;;;;6335505;22;20011;-88
2023/07/29 04:15:46;;;;;;;47.38;23.98;;;;;;;;;;6329238;22;20009;-87
2023/07/29 04:18:16;;;;;;;40.40;23.05;;;;;;;;;;6311424;22;20019;-87
2023/07/29 04:20:43;;;;;;;41.70;24.42;;;;;;;;;;6311727;22;20035;-87
2023/07/29 04:23:10;;;;;;;38.92;22.25;;;;;;;;;;6311851;22;20019;-88
2023/07/29 04:25:40;;;;;;;42.45;23.70;;;;;;;;;;6313655;22;20027;-87
2023/07/29 04:28:07;;;;;;;45.35;24.65;;;;;;;;;;6320783;22;20043;-88
2023/07/29 04:30:34;;;;;;;42.53;22.67;;;;;;;;;;6313187;22;20190;-88
2023/07/29 04:33:01;;;;;;;44.28;22.58;;;;;;;;;;6314627;22;20074;-88
2023/07/29 04:35:28;;;;;;;43.97;22.80;;;;;;;;;;6315733;22;20033;-87
2023/07/29 04:37:55;;;;;;;44.75;23.60;;;;;;;;;;6313803;22;20031;-88
2023/07/29 04:40:22;;;;;;;44.08;23.05;;;;;;;;;;6313432;22;20019;-87
2023/07/29 04:42:51;;;;;;;38.30;21.95;;;;;;;;;;6313286;22;20033;-88
2023/07/29 04:45:18;;;;;;;44.83;22.65;;;;;;;;;;6311952;22;20049;-87
2023/07/29 04:47:47;;;;;;;41.67;22.77;;;;;;;;;;6313342;22;20019;-88
2023/07/29 04:50:14;;;;;;;43.53;23.00;;;;;;;;;;6312971;22;20031;-87
2023/07/29 04:52:41;;;;;;;40.10;21.90;;;;;;;;;;6312852;22;20440;-87
2023/07/29 04:55:08;;;;;;;37.70;21.63;;;;;;;;;;6311754;22;20382;-88
2023/07/29 04:57:35;;;;;;;39.95;22.38;;;;;;;;;;6312014;22;20073;-88
2023/07/29 05:00:03;;;;;;;34.65;21.17;;;;;;;;;;6314750;22;20027;-87
2023/07/29 05:02:29;;;;;;;46.30;22.20;;;;;;;;;;6316617;22;20030;-88
2023/07/29 05:04:57;;;;;;;36.28;20.92;;;;;;;;;;6313199;22;20310;-88
2023/07/29 05:07:25;;;;;;;35.67;21.15;;;;;;;;;;6314819;22;20170;-88
2023/07/29 05:09:51;;;;;;;35.33;21.02;;;;;;;;;;6313861;22;20016;-88
2023/07/29 05:12:18;;;;;;;37.78;20.95;;;;;;;;;;6310281;22;20078;-88
2023/07/29 05:14:45;;;;;;;39.40;20.17;;;;;;;;;;6311497;22;20031;-88
2023/07/29 05:17:13;;;;;;;41.85;22.02;;;;;;;;;;6312924;22;20468;-88
2023/07/29 05:19:40;;;;;;;35.85;20.27;;;;;;;;;;6313837;22;20023;-88
2023/07/29 05:22:07;;;;;;;35.28;19.20;;;;;;;;;;6321783;22;20248;-88
2023/07/29 05:24:34;;;;;;;35.97;18.20;;;;;;;;;;6323283;22;20031;-87
2023/07/29 05:27:02;;;;;;;33.70;19.02;;;;;;;;;;6312510;22;20178;-88
2023/07/29 05:29:29;;;;;;;31.02;18.35;;;;;;;;;;6314661;22;20118;-88
2023/07/29 05:31:56;;;;;;;27.73;18.13;;;;;;;;;;6319553;22;20031;-87
2023/07/29 05:34:36;;;;;;;34.47;17.85;;;;;;;;;;6329737;22;20043;-87
2023/07/29 05:37:16;;;;;;;31.48;15.73;;;;;;;;;;6335149;22;20080;-85
2023/07/29 05:39:57;;;;;;;25.48;15.98;;;;;;;;;;6324232;22;20051;-88
2023/07/29 05:42:24;;;;;;;29.38;16.27;;;;;;;;;;6313343;22;20039;-88
2023/07/29 05:44:52;;;;;;;26.85;14.68;;;;;;;;;;6313267;22;20046;-88
2023/07/29 05:47:19;;;;;;;26.55;15.90;;;;;;;;;;6318623;22;20083;-87
2023/07/29 05:49:52;;;;;;;27.02;15.20;;;;;;;;;;6313186;22;20286;-87
2023/07/29 05:52:21;;;;;;;;;;;;;;;;;;6313417;22;20038;-87
2023/07/29 05:54:48;;;;;;;21.63;12.65;;;;;;;;;;6310548;22;19991;-87
2023/07/29 05:57:15;;;;;;;23.98;15.25;;;;;;;;;;6311675;22;20412;-87
2023/07/29 05:59:42;;;;;;;27.00;15.40;;;;;;;;;;6309492;22;20074;-87
2023/07/29 06:02:22;;;;;;;26.88;15.40;;;;;;;;;;6331281;22;20015;-86
2023/07/29 06:05:03;;;;;;;23.63;15.23;;;;;;;;;;6334271;22;20030;-88
2023/07/29 06:07:59;;;;;;;24.55;14.93;;;;;;;;;;6334246;22;20015;-86
2023/07/29 06:10:29;;;;;;;22.30;13.20;;;;;;;;;;6334130;22;20011;-86
2023/07/29 06:13:10;;;;;;;23.63;14.52;;;;;;;;;;6334093;22;20021;-88
2023/07/29 06:15:43;;;;;;;21.30;13.63;;;;;;;;;;6333886;22;20051;-87
2023/07/29 06:18:39;;;;;;;20.33;14.00;;;;;;;;;;6334534;22;20038;-88
2023/07/29 06:21:20;;;;;;;20.98;14.98;;;;;;;;;;6333850;22;20041;-88
2023/07/29 06:23:50;;;;;;;23.05;14.32;;;;;;;;;;6334206;22;20018;-89
2023/07/29 06:26:32;;;;;;;20.73;13.57;;;;;;;;;;6333980;22;20050;-87
2023/07/29 06:29:13;;;;;;;21.17;14.48;;;;;;;;;;6330960;22;20012;-87
2023/07/29 06:31:56;;;;;;;19.02;14.48;;;;;;;;;;6332598;22;20023;-89
2023/07/29 06:35:05;;;;;;;21.48;14.60;;;;;;;;;;6331700;22;20011;-88
2023/07/29 06:43:04;;;;;;;21.80;13.90;;;;;;;;;;6318769;22;20027;-88
2023/07/29 06:45:45;;;;;;;20.23;13.23;;;;;;;;;;6329069;22;20453;-89
2023/07/29 06:48:28;;;;;;;18.20;13.90;;;;;;;;;;6332091;22;20014;-89
2023/07/29 06:51:15;;;;;;;18.65;13.98;;;;;;;;;;6331877;22;20006;-86
2023/07/29 06:53:56;;;;;;;20.98;13.45;;;;;;;;;;6331880;22;20033;-89
2023/07/29 06:56:38;;;;;;;18.73;14.32;;;;;;;;;;6332246;22;20010;-89
2023/07/29 06:59:22;;;;;;;20.70;13.82;;;;;;;;;;6333902;22;20003;-88
2023/07/29 07:02:18;;;;;;;18.80;14.52;;;;;;;;;;6335316;22;20031;-89
2023/07/29 07:04:59;;;;;;;17.40;12.32;;;;;;;;;;6331275;22;20011;-88
2023/07/29 07:07:40;;;;;;;18.48;12.75;;;;;;;;;;6328741;22;20033;-89
2023/07/29 07:10:19;;;;;;;20.08;12.63;;;;;;;;;;6333326;22;20027;-90
2023/07/29 07:16:36;;;;;;;18.33;11.75;;;;;;;;;;6334311;22;20014;-88
2023/07/29 07:19:18;;;;;;;14.75;10.73;;;;;;;;;;6335009;22;20037;-89
2023/07/29 07:21:48;;;;;;;16.25;11.05;;;;;;;;;;6333892;22;20371;-88
2023/07/29 07:24:29;;;;;;;14.95;9.85;;;;;;;;;;6331083;22;20019;-88
2023/07/29 07:27:14;;;;;;;16.13;9.45;;;;;;;;;;6332066;22;20079;-88
2023/07/29 07:30:03;;;;;;;14.10;8.68;;;;;;;;;;6332180;22;20098;-89
2023/07/29 07:32:45;;;;;;;11.35;7.95;;;;;;;;;;6330528;22;20038;-89
2023/07/29 07:35:14;;;;;;;13.38;8.40;;;;;;;;;;6330492;22;20027;-88
2023/07/29 07:37:54;;;;;;;13.15;7.38;;;;;;;;;;6330536;22;20077;-88
2023/07/29 07:40:23;;;;;;;9.10;6.95;;;;;;;;;;6329609;22;20075;-89
2023/07/29 07:43:04;;;;;;;9.50;6.53;;;;;;;;;;6326360;22;20058;-88
2023/07/29 07:45:36;;;;;;;8.30;6.30;;;;;;;;;;6326269;22;20022;-88
2023/07/29 07:48:06;;;;;;;9.57;6.13;;;;;;;;;;6328189;22;20053;-89
2023/07/29 07:50:37;;;;;;;9.85;6.50;;;;;;;;;;6326506;22;20027;-87
2023/07/29 07:53:06;;;;;;;8.07;6.13;;;;;;;;;;6325123;22;20027;-88
2023/07/29 07:55:34;;;;;;;8.45;5.50;;;;;;;;;;6323364;22;20027;-88
2023/07/29 07:58:02;;;;;;;7.00;4.55;;;;;;;;;;6324994;22;20015;-87
2023/07/29 08:00:31;;;;;;;7.45;4.10;;;;;;;;;;6324787;22;20200;-88
2023/07/29 08:02:58;;;;;;;6.38;4.38;;;;;;;;;;6326817;22;20058;-87
2023/07/29 08:05:29;;;;;;;5.53;3.70;;;;;;;;;;6324079;22;20023;-88
2023/07/29 08:08:05;;;;;;;6.20;4.05;;;;;;;;;;6323531;22;20213;-87
2023/07/29 08:10:42;;;;;;;8.25;3.55;;;;;;;;;;6324278;22;20051;-88
2023/07/29 08:13:11;;;;;;;5.63;3.20;;;;;;;;;;6326309;22;20023;-87
2023/07/29 08:15:41;;;;;;;3.28;2.78;;;;;;;;;;6321352;22;20022;-89
2023/07/29 08:18:11;;;;;;;6.38;3.08;;;;;;;;;;6321353;22;20046;-88
2023/07/29 08:20:38;;;;;;;4.07;2.53;;;;;;;;;;6318871;22;20027;-87
2023/07/29 08:23:07;;;;;;;6.47;3.13;;;;;;;;;;6320616;22;20339;-88
2023/07/29 08:25:36;;;;;;;4.30;2.65;;;;;;;;;;6326365;22;20034;-87
2023/07/29 08:28:41;;;;;;;5.15;2.65;;;;;;;;;;6321344;22;20058;-88
2023/07/29 08:31:11;;;;;;;2.33;1.50;;;;;;;;;;6320411;22;20019;-88
2023/07/29 08:33:38;;;;;;;4.18;2.17;;;;;;;;;;6316990;22;20050;-88
2023/07/29 08:36:07;;;;;;;3.90;1.80;;;;;;;;;;6316622;22;20049;-88
2023/07/29 08:38:36;;;;;;;2.83;1.55;;;;;;;;;;6320487;22;20023;-87
2023/07/29 08:41:06;;;;;;;3.28;1.90;;;;;;;;;;6316964;22;20049;-88
2023/07/29 08:43:36;;;;;;;2.67;1.60;;;;;;;;;;6315399;22;20015;-87
2023/07/29 08:46:06;;;;;;;3.05;1.80;;;;;;;;;;6315521;22;20023;-87
2023/07/29 08:48:52;;;;;;;6.85;2.10;;;;;;;;;;6314005;22;20023;-88
2023/07/29 08:51:22;;;;;;;2.10;1.58;;;;;;;;;;6315298;22;20119;-88
2023/07/29 08:57:14;;;;;;;2.00;1.50;;;;;;;;;;6316394;22;20052;-88
2023/07/29 08:59:43;;;;;;;2.22;1.65;;;;;;;;;;6314506;22;20381;-88
2023/07/29 09:02:10;;;;;;;3.90;1.70;;;;;;;;;;6312409;22;20019;-87
2023/07/29 09:04:37;;;;;;;3.78;1.50;;;;;;;;;;6313647;22;20027;-88
2023/07/29 09:07:10;;;;;;;2.88;1.17;;;;;;;;;;6309662;22;20023;-88
2023/07/29 09:09:38;;;;;;;3.03;1.20;;;;;;;;;;6316433;22;20027;-88
2023/07/29 09:12:06;;;;;;;2.65;1.25;;;;;;;;;;6315427;22;20025;-87
2023/07/29 09:14:42;;;;;;;2.10;1.13;;;;;;;;;;6312346;22;20023;-87
2023/07/29 09:17:09;;;;;;;3.95;1.58;;;;;;;;;;6312214;22;20049;-87
2023/07/29 09:19:38;;;;;;;4.60;1.77;;;;;;;;;;6311344;22;20019;-88
2023/07/29 09:22:16;;;;;;;3.25;2.05;;;;;;;;;;6312359;22;20033;-88
2023/07/29 09:24:45;;;;;;;3.65;1.90;;;;;;;;;;6311976;22;20081;-88
2023/07/29 09:27:29;;;;;;;3.10;1.65;;;;;;;;;;6313089;22;20227;-88
2023/07/29 09:30:03;;;;;;;3.40;2.05;;;;;;;;;;6312734;22;20114;-88
2023/07/29 09:32:30;;;;;;;3.75;1.33;;;;;;;;;;6311794;22;20236;-87
2023/07/29 09:34:58;;;;;;;2.95;1.13;;;;;;;;;;6310669;22;20030;-88
2023/07/29 09:37:44;;;;;;;3.05;1.30;;;;;;;;;;6314290;22;20031;-91
2023/07/29 09:40:35;;;;;;;2.58;1.50;;;;;;;;;;6313264;22;20162;-87
2023/07/29 09:43:07;;;;;;;2.90;1.40;;;;;;;;;;6316159;22;20022;-88
2023/07/29 09:45:37;;;;;;;5.95;1.27;;;;;;;;;;6319266;22;20033;-87
2023/07/29 09:48:09;;;;;;;2.42;1.15;;;;;;;;;;6312173;22;20027;-88
2023/07/29 09:50:46;;;;;;;;;;;;;;;;;;6314134;22;20094;-86
2023/07/29 09:53:14;;;;;;;1.50;1.10;;;;;;;;;;6314680;22;19918;-88
2023/07/29 09:55:46;;;;;;;2.58;1.40;;;;;;;;;;6308618;22;20033;-88
2023/07/29 09:58:15;;;;;;;2.03;1.42;;;;;;;;;;6316951;22;20011;-88
2023/07/29 10:00:44;;;;;;;6.45;1.70;;;;;;;;;;6316681;22;20100;-88
2023/07/29 10:03:15;;;;;;;2.65;1.30;;;;;;;;;;6313803;22;20446;-88
2023/07/29 10:05:46;;;;;;;4.63;1.92;;;;;;;;;;6309897;22;20466;-88
2023/07/29 10:08:16;;;;;;;2.38;1.58;;;;;;;;;;6305124;22;20033;-88
2023/07/29 10:10:44;;;;;;;2.38;1.30;;;;;;;;;;6313892;22;20021;-89
2023/07/29 10:13:14;;;;;;;5.18;1.40;;;;;;;;;;6313561;22;20049;-88
2023/07/29 10:15:43;;;;;;;2.28;1.50;;;;;;;;;;6311653;22;20027;-89
2023/07/29 10:18:11;;;;;;;4.35;1.73;;;;;;;;;;6313537;22;20239;-86
2023/07/29 10:20:45;;;;;;;5.80;1.48;;;;;;;;;;6307350;22;20058;-88
2023/07/29 10:23:13;;;;;;;3.42;1.55;;;;;;;;;;6308401;22;20042;-88
2023/07/29 10:25:46;;;;;;;5.03;1.63;;;;;;;;;;6310334;22;20023;-88
2023/07/29 10:28:15;;;;;;;2.08;1.48;;;;;;;;;;6310505;22;20027;-89
2023/07/29 10:30:46;;;;;;;2.75;1.45;;;;;;;;;;6310534;22;20097;-88
2023/07/29 10:33:19;;;;;;;5.97;1.23;;;;;;;;;;6315405;22;20023;-89
2023/07/29 10:35:51;;;;;;;1.80;1.20;;;;;;;;;;6313844;22;20012;-87
2023/07/29 10:38:28;;;;;;;2.55;1.38;;;;;;;;;;6311410;22;20022;-88
2023/07/29 10:40:56;;;;;;;1.40;1.30;;;;;;;;;;6310452;22;20042;-88
2023/07/29 10:43:26;;;;;;;2.13;1.17;;;;;;;;;;6309809;22;20011;-88
2023/07/29 10:46:17;;;;;;;2.65;1.23;;;;;;;;;;6312386;22;20150;-90
2023/07/29 10:48:55;;;;;;;1.45;1.10;;;;;;;;;;6287929;22;20077;-87
2023/07/29 10:51:38;;;;;;;4.22;1.38;;;;;;;;;;6310278;22;20023;-88
2023/07/29 10:54:22;;;;;;;4.28;1.38;;;;;;;;;;6314339;22;20198;-87
2023/07/29 10:56:55;;;;;;;1.90;0.80;;;;;;;;;;6314831;22;20019;-88
2023/07/29 10:59:31;;;;;;;1.08;0.88;;;;;;;;;;6315016;22;20191;-89
2023/07/29 11:01:58;;;;;;;;;;;;;;;;;;6317695;22;20607;-88
2023/07/29 11:04:45;;;;;;;4.68;1.17;;;;;;;;;;6319919;22;20049;-88
2023/07/29 11:07:16;;;;;;;2.55;0.80;;;;;;;;;;6313157;22;20027;-88
2023/07/29 11:09:50;;;;;;;2.45;0.70;;;;;;;;;;6313228;22;20027;-89
2023/07/29 11:12:35;;;;;;;1.10;0.90;;;;;;;;;;6310637;22;20015;-88
2023/07/29 11:15:12;;;;;;;2.35;1.00;;;;;;;;;;6311746;22;20053;-88
2023/07/29 11:17:45;;;;;;;2.88;0.95;;;;;;;;;;6313595;22;20039;-88
2023/07/29 11:20:13;;;;;;;1.90;0.98;;;;;;;;;;6311987;22;20196;-89
2023/07/29 11:22:41;;;;;;;1.67;1.20;;;;;;;;;;6313673;22;20075;-89
2023/07/29 11:25:18;;;;;;;3.00;1.25;;;;;;;;;;6313420;22;20024;-88
2023/07/29 11:27:51;;;;;;;1.23;1.00;;;;;;;;;;6319186;22;20030;-89
2023/07/29 11:30:27;;;;;;;2.10;1.10;;;;;;;;;;6318647;22;20039;-89
2023/07/29 11:32:55;;;;;;;1.77;1.27;;;;;;;;;;6319009;22;20019;-88
2023/07/29 11:35:27;;;;;;;2.97;0.80;;;;;;;;;;6313189;22;20024;-87
2023/07/29 11:38:08;;;;;;;3.65;1.10;;;;;;;;;;6311023;22;20011;-86
2023/07/29 11:41:14;;;;;;;1.45;1.00;;;;;;;;;;6308860;22;20023;-87
2023/07/29 11:44:10;;;;;;;1.52;0.90;;;;;;;;;;6307970;22;20035;-87
2023/07/29 11:46:53;;;;;;;2.42;1.23;;;;;;;;;;6302323;22;20211;-87
2023/07/29 11:49:29;;;;;;;2.80;0.88;;;;;;;;;;6310407;22;20033;-87
2023/07/29 11:52:10;;;;;;;2.47;0.90;;;;;;;;;;6305826;22;20053;-87
2023/07/29 11:54:52;;;;;;;1.80;0.90;;;;;;;;;;6312677;22;20154;-87
2023/07/29 11:57:35;;;;;;;2.05;0.95;;;;;;;;;;6314892;22;20161;-87
2023/07/29 12:00:18;;;;;;;1.42;0.90;;;;;;;;;;6308215;22;20058;-87
2023/07/29 12:03:37;;;;;;;1.08;0.93;;;;;;;;;;6324738;22;20011;-90
2023/07/29 12:06:49;;;;;;;3.80;0.85;;;;;;;;;;6319050;22;20019;-87
2023/07/29 12:09:31;;;;;;;2.42;1.17;;;;;;;;;;6287876;22;20038;-87
2023/07/29 12:12:18;;;;;;;3.05;1.05;;;;;;;;;;6264890;22;20007;-87
2023/07/29 12:14:58;;;;;;;1.65;1.10;;;;;;;;;;6271098;22;20484;-87
2023/07/29 12:17:46;;;;;;;1.67;1.15;;;;;;;;;;6266927;22;20047;-87
2023/07/29 12:20:38;;;;;;;3.97;1.10;;;;;;;;;;6266895;22;20046;-87
2023/07/29 12:23:24;;;;;;;1.83;0.90;;;;;;;;;;6266037;22;20015;-86
2023/07/29 12:25:57;;;;;;;4.07;1.10;;;;;;;;;;6235705;22;20023;-86
2023/07/29 12:28:44;;;;;;;1.80;0.93;;;;;;;;;;6260590;22;20085;-87
2023/07/29 12:31:32;;;;;;;4.03;0.98;;;;;;;;;;6239451;22;20019;-87
2023/07/29 12:34:21;;;;;;;1.38;0.85;;;;;;;;;;6262366;22;20020;-86
2023/07/29 12:37:05;;;;;;;2.13;1.00;;;;;;;;;;6259178;22;20065;-87
2023/07/29 12:39:52;;;;;;;2.45;0.80;;;;;;;;;;6252560;22;20228;-87
2023/07/29 12:42:35;;;;;;;1.67;0.70;;;;;;;;;;6249425;22;20047;-88
2023/07/29 12:45:17;;;;;;;9.27;1.38;;;;;;;;;;6254795;22;20015;-87
2023/07/29 12:48:03;;;;;;;2.03;1.00;;;;;;;;;;6257990;22;20031;-87
2023/07/29 12:50:47;;;;;;;1.40;0.77;;;;;;;;;;6257372;22;20292;-87
2023/07/29 12:53:33;;;;;;;2.55;0.90;;;;;;;;;;6256480;22;20035;-87
2023/07/29 12:56:20;;;;;;;1.30;0.90;;;;;;;;;;6253728;22;20207;-87
2023/07/29 12:58:56;;;;;;;1.08;0.73;;;;;;;;;;6277224;22;20112;-88
2023/07/29 13:01:36;;;;;;;1.92;0.77;;;;;;;;;;6257344;22;20028;-87
2023/07/29 13:04:17;;;;;;;9.25;1.05;;;;;;;;;;6260322;22;20037;-87
2023/07/29 13:06:59;;;;;;;2.28;1.02;;;;;;;;;;6258978;22;20083;-88
2023/07/29 13:09:44;;;;;;;3.65;1.17;;;;;;;;;;6306504;22;20223;-86
2023/07/29 13:12:25;;;;;;;1.50;0.65;;;;;;;;;;6309131;22;20251;-87
2023/07/29 13:15:12;;;;;;;1.73;0.55;;;;;;;;;;6311151;22;20014;-88
2023/07/29 13:18:03;;;;;;;1.65;0.88;;;;;;;;;;6303285;22;20062;-88
2023/07/29 13:20:47;;;;;;;2.67;0.63;;;;;;;;;;6305948;22;20354;-88
2023/07/29 13:23:38;;;;;;;4.13;0.98;;;;;;;;;;6312749;22;20033;-87
2023/07/29 13:26:20;;;;;;;2.80;0.80;;;;;;;;;;6311538;22;20011;-86
2023/07/29 13:29:01;;;;;;;1.83;0.70;;;;;;;;;;6310773;22;20023;-88
2023/07/29 13:31:36;;;;;;;1.67;0.82;;;;;;;;;;6284221;22;20250;-88
2023/07/29 13:34:17;;;;;;;2.03;0.80;;;;;;;;;;6308059;22;20203;-88
2023/07/29 13:40:23;;;;;;;2.88;0.80;;;;;;;;;;6317744;22;20010;-86
2023/07/29 13:43:04;;;;;;;3.75;0.90;;;;;;;;;;6308768;22;20007;-87
2023/07/29 13:45:45;;;;;;;6.22;1.50;;;;;;;;;;6310180;22;20049;-87
2023/07/29 13:48:27;;;;;;;1.30;0.63;;;;;;;;;;6311484;22;20329;-88
2023/07/29 13:51:14;;;;;;;1.30;0.82;;;;;;;;;;6305489;22;20011;-87
2023/07/29 13:53:56;;;;;;;2.40;0.90;;;;;;;;;;6309904;22;20087;-88
2023/07/29 13:56:37;;;;;;;3.17;0.80;;;;;;;;;;6338782;22;20278;-87
2023/07/29 13:59:22;;;;;;;3.13;0.80;;;;;;;;;;6314527;22;20023;-87
2023/07/29 14:02:06;;;;;;;1.75;0.90;;;;;;;;;;6353091;22;20124;-87
2023/07/29 14:05:16;;;;;;;1.38;0.88;;;;;;;;;;6352251;22;20104;-87
2023/07/29 14:08:16;;;;;;;1.90;0.90;;;;;;;;;;6332268;22;20027;-86
2023/07/29 14:11:00;;;;;;;1.77;0.90;;;;;;;;;;6332684;22;20026;-87
2023/07/29 14:14:01;;;;;;;1.45;0.80;;;;;;;;;;6332667;22;20154;-88
2023/07/29 14:16:50;;;;;;;0.70;0.60;;;;;;;;;;6356074;22;20007;-88
2023/07/29 14:19:59;;;;;;;2.00;0.60;;;;;;;;;;6334256;22;20015;-89
2023/07/29 14:22:47;;;;;;;1.63;0.80;;;;;;;;;;6356258;22;20087;-87
2023/07/29 14:25:38;;;;;;;3.53;1.00;;;;;;;;;;6358155;22;20049;-88
2023/07/29 14:28:43;;;;;;;2.60;0.70;;;;;;;;;;6360334;22;20026;-87
2023/07/29 14:31:44;;;;;;;2.20;1.10;;;;;;;;;;6331484;22;20019;-87
2023/07/29 14:34:51;;;;;;;4.32;1.00;;;;;;;;;;6333737;22;20066;-88
2023/07/29 14:37:43;;;;;;;7.38;1.13;;;;;;;;;;6358695;22;20015;-88
2023/07/29 14:40:38;;;;;;;1.77;0.80;;;;;;;;;;6357443;22;20029;-87
2023/07/29 14:43:38;;;;;;;1.50;1.27;;;;;;;;;;6358187;22;20022;-86
2023/07/29 14:46:23;;;;;;;1.38;1.08;;;;;;;;;;6360279;22;20007;-87
2023/07/29 14:49:25;;;;;;;1.83;1.60;;;;;;;;;;6357244;22;20060;-88
2023/07/29 14:52:06;;;;;;;2.55;1.33;;;;;;;;;;6334903;22;20018;-89
2023/07/29 14:55:01;;;;;;;3.47;1.30;;;;;;;;;;6327143;22;20015;-88
2023/07/29 15:11:41;;;;;;;2.25;1.35;;;;;;;;;;6275978;22;20030;-90
2023/07/29 15:14:49;;;;;;;;;;;;;;;;;;;;;
2023/07/29 15:23:55;;;;;;;7.03;1.77;;;;;;;;;;6332248;22;20007;-89
2023/07/29 15:32:21;;;;;;;3.38;3.03;;;;;;;;;;6280327;22;20436;-88
2023/07/29 15:35:39;;;;;;;6.45;3.08;;;;;;;;;;6295006;22;20010;-87
2023/07/29 15:49:11;;;;;;;;;;;;;;;;;;;;;
2023/07/29 16:11:43;;;;;;;7.70;2.35;;;;;;;;;;6315932;22;20137;-87
2023/07/29 16:14:14;;;;;;;9.10;2.20;;;;;;;;;;6288187;22;20539;-87
2023/07/29 16:17:13;;;;;;;2.97;1.40;;;;;;;;;;6306152;22;20023;-87
2023/07/29 16:22:52;;;;;;;3.50;1.50;;;;;;;;;;6252392;22;20049;-85
2023/07/29 16:25:34;;;;;;;3.28;1.60;;;;;;;;;;6362490;22;20014;-86
2023/07/29 16:28:46;;;;;;;3.53;1.83;;;;;;;;;;6363812;22;20014;-86
2023/07/29 16:31:46;;;;;;;3.47;2.08;;;;;;;;;;6362673;22;20022;-86
2023/07/29 16:34:58;;;;;;;3.60;1.73;;;;;;;;;;6362890;22;20002;-87
2023/07/29 16:37:39;;;;;;;4.63;1.98;;;;;;;;;;6338274;22;20006;-86
2023/07/29 16:40:20;;;;;;;3.60;2.00;;;;;;;;;;6359850;22;20185;-83
2023/07/29 16:43:04;;;;;;;2.33;1.70;;;;;;;;;;6334181;22;20025;-86
2023/07/29 16:45:49;;;;;;;6.38;2.00;;;;;;;;;;6327002;22;20103;-85
2023/07/29 16:48:36;;;;;;;3.97;1.60;;;;;;;;;;6361840;22;20007;-85
2023/07/29 16:51:20;;;;;;;5.20;2.53;;;;;;;;;;6337672;22;20113;-86